Time;durP1;ratioP1;P1;durP2;ratioP2;P2;SDS_P1;SDS_P2;PMS_P1;PMS_P2;Temp;Humidity;BMP_temperature;BMP_pressure;BME280_temperature;BME280_humidity;BME280_pressure;Samples;Min_cycle;Max_cycle;Signal;HPM_P1;HPM_P2
2022/04/14 00:01:32;;;;;;;39.85;31.05;;;;;;;9.45;100.00;101871.38;5060910;28;20032;-69
2022/04/14 00:03:57;;;;;;;44.13;35.42;;;;;;;9.42;100.00;101872.19;5063574;28;20075;-69
2022/04/14 00:06:23;;;;;;;52.95;36.63;;;;;;;9.38;100.00;101865.94;5062383;28;20375;-69
2022/04/14 00:08:52;;;;;;;48.17;37.70;;;;;;;9.40;100.00;101858.94;5061898;28;20029;-69
2022/04/14 00:11:18;;;;;;;46.88;38.08;;;;;;;9.40;100.00;101864.22;5063036;28;20029;-69
2022/04/14 00:13:43;;;;;;;45.33;36.83;;;;;;;9.39;100.00;101851.00;5061371;28;20025;-68
2022/04/14 00:16:08;;;;;;;44.22;36.17;;;;;;;9.37;100.00;101858.88;5063927;28;20021;-68
2022/04/14 00:18:34;;;;;;;42.72;35.70;;;;;;;9.34;100.00;101858.81;5060803;28;20025;-68
2022/04/14 00:20:59;;;;;;;51.40;43.50;;;;;;;9.47;100.00;101846.81;5063412;28;20432;-69
2022/04/14 00:23:25;;;;;;;54.95;42.95;;;;;;;9.47;100.00;101845.94;5062084;28;20036;-70
2022/04/14 00:25:51;;;;;;;37.70;30.60;;;;;;;9.31;100.00;101855.22;5064611;28;20053;-70
2022/04/14 00:28:16;;;;;;;48.63;33.67;;;;;;;9.36;100.00;101851.84;5066888;28;20063;-70
2022/04/14 00:30:42;;;;;;;47.35;39.08;;;;;;;9.35;100.00;101843.84;5064646;28;20372;-70
2022/04/14 00:33:07;;;;;;;47.08;37.30;;;;;;;9.39;100.00;101848.34;5068029;28;20029;-69
2022/04/14 00:35:32;;;;;;;72.63;53.90;;;;;;;9.54;100.00;101846.13;5064609;28;20104;-71
2022/04/14 00:37:57;;;;;;;437.60;63.55;;;;;;;9.46;100.00;101846.78;5066755;28;20079;-70
2022/04/14 00:40:23;;;;;;;188.02;46.25;;;;;;;9.45;100.00;101850.25;5066126;28;20044;-68
2022/04/14 00:42:48;;;;;;;309.70;46.28;;;;;;;9.43;100.00;101847.59;5065220;28;20044;-70
2022/04/14 00:45:14;;;;;;;108.68;46.08;;;;;;;9.44;100.00;101849.38;5066982;28;20032;-70
2022/04/14 00:47:39;;;;;;;114.18;49.88;;;;;;;9.50;100.00;101846.00;5064241;28;20036;-69
2022/04/14 00:50:05;;;;;;;145.07;52.17;;;;;;;9.51;100.00;101846.03;5067602;28;20430;-70
2022/04/14 00:52:31;;;;;;;162.75;52.97;;;;;;;9.53;100.00;101843.44;5064514;28;20021;-69
2022/04/14 00:54:57;;;;;;;144.27;44.30;;;;;;;9.43;100.00;101848.47;5066569;28;20475;-70
2022/04/14 00:57:22;;;;;;;66.97;50.30;;;;;;;9.38;100.00;101843.97;5065552;28;20028;-70
2022/04/14 00:59:48;;;;;;;143.90;36.95;;;;;;;9.28;100.00;101844.59;5065131;28;20021;-70
2022/04/14 01:02:13;;;;;;;51.33;39.00;;;;;;;9.27;100.00;101845.44;5066729;28;20020;-71
2022/04/14 01:04:40;;;;;;;62.10;49.03;;;;;;;9.27;100.00;101856.84;5064058;28;20035;-70
2022/04/14 01:07:07;;;;;;;59.92;47.45;;;;;;;9.24;100.00;101855.03;5064059;28;20024;-71
2022/04/14 01:09:33;;;;;;;66.80;50.35;;;;;;;9.26;100.00;101860.34;5066836;28;20036;-70
2022/04/14 01:12:00;;;;;;;74.97;54.75;;;;;;;9.30;100.00;101854.28;5064401;28;20460;-70
2022/04/14 01:14:31;;;;;;;59.85;46.22;;;;;;;9.27;100.00;101848.94;5066146;28;20067;-69
2022/04/14 01:17:07;;;;;;;65.10;51.08;;;;;;;9.29;100.00;101848.97;5064811;28;20039;-69
2022/04/14 01:19:33;;;;;;;66.93;52.22;;;;;;;9.30;100.00;101837.59;5066667;28;20035;-70
2022/04/14 01:22:02;;;;;;;80.82;56.13;;;;;;;9.34;100.00;101845.59;5064676;28;20070;-70
2022/04/14 01:24:29;;;;;;;79.43;57.90;;;;;;;9.37;100.00;101848.31;5065954;28;20029;-70
2022/04/14 01:26:55;;;;;;;68.45;52.47;;;;;;;9.35;100.00;101844.75;5065157;28;20361;-70
2022/04/14 01:29:25;;;;;;;71.32;54.20;;;;;;;9.31;100.00;101839.38;5064701;28;20032;-70
2022/04/14 01:31:53;;;;;;;82.22;59.03;;;;;;;9.36;100.00;101843.00;5065736;28;20074;-69
2022/04/14 01:34:19;;;;;;;86.90;60.95;;;;;;;9.38;100.00;101843.97;5064459;28;20055;-69
2022/04/14 01:36:44;;;;;;;88.78;62.25;;;;;;;9.42;100.00;101838.78;5065046;28;20108;-68
2022/04/14 01:39:11;;;;;;;86.30;60.25;;;;;;;9.39;100.00;101844.00;5063343;28;20468;-68
2022/04/14 01:41:38;;;;;;;70.82;52.28;;;;;;;9.31;100.00;101848.19;5062959;28;20041;-69
2022/04/14 01:44:04;;;;;;;95.30;63.60;;;;;;;9.35;100.00;101843.84;5066329;28;20029;-69
2022/04/14 01:46:29;;;;;;;92.25;63.45;;;;;;;9.34;100.00;101842.97;5062336;28;20056;-68
2022/04/14 01:48:55;;;;;;;97.13;64.57;;;;;;;9.34;100.00;101845.59;5065016;28;20124;-69
2022/04/14 01:51:20;;;;;;;90.93;63.95;;;;;;;9.33;100.00;101841.19;5065139;28;20060;-69
2022/04/14 01:53:45;;;;;;;97.10;63.40;;;;;;;9.34;100.00;101842.97;5063843;28;20100;-69
2022/04/14 01:56:11;;;;;;;94.32;64.85;;;;;;;9.40;100.00;101839.59;5066149;28;20029;-68
2022/04/14 01:58:36;;;;;;;95.32;65.18;;;;;;;9.39;100.00;101849.28;5062809;28;20033;-69
2022/04/14 02:01:01;;;;;;;100.82;65.57;;;;;;;9.37;100.00;101845.69;5065690;28;20021;-68
2022/04/14 02:03:27;;;;;;;101.43;65.07;;;;;;;9.33;100.00;101854.38;5064165;28;20047;-69
2022/04/14 02:05:52;;;;;;;100.85;65.00;;;;;;;9.33;100.00;101859.66;5064697;28;20029;-69
2022/04/14 02:08:17;;;;;;;94.32;62.70;;;;;;;9.34;100.00;101858.81;5065317;28;20035;-69
2022/04/14 02:10:43;;;;;;;93.90;63.33;;;;;;;9.30;100.00;101856.06;5063083;28;20063;-69
2022/04/14 02:13:08;;;;;;;107.05;68.68;;;;;;;9.29;100.00;101852.53;5066154;28;20406;-69
2022/04/14 02:15:34;;;;;;;110.18;66.70;;;;;;;9.30;100.00;101854.28;5062562;28;20041;-69
2022/04/14 02:17:59;;;;;;;111.32;68.75;;;;;;;9.29;100.00;101856.91;5064871;28;20469;-70
2022/04/14 02:20:24;;;;;;;112.90;68.70;;;;;;;9.25;100.00;101859.47;5064129;28;20455;-70
2022/04/14 02:22:49;;;;;;;101.13;64.97;;;;;;;9.23;100.00;101857.63;5063843;28;20075;-69
2022/04/14 02:25:15;;;;;;;109.35;67.47;;;;;;;9.23;100.00;101860.25;5065361;28;20078;-70
2022/04/14 02:27:40;;;;;;;120.10;70.25;;;;;;;9.20;100.00;101860.19;5062439;28;20143;-69
2022/04/14 02:30:06;;;;;;;162.88;63.47;;;;;;;9.05;100.00;101856.28;5065992;28;20032;-70
2022/04/14 02:32:31;;;;;;;112.30;55.95;;;;;;;9.01;100.00;101859.72;5062805;28;20020;-69
2022/04/14 02:34:57;;;;;;;70.88;49.70;;;;;;;8.94;100.00;101860.41;5063174;28;20506;-70
2022/04/14 02:37:22;;;;;;;94.30;60.95;;;;;;;8.95;100.00;101867.44;5063813;28;20115;-69
2022/04/14 02:39:47;;;;;;;147.00;64.53;;;;;;;8.93;100.00;101870.88;5062982;28;20021;-70
2022/04/14 02:42:13;;;;;;;902.22;98.65;;;;;;;8.88;100.00;101870.75;5065142;28;20427;-70
2022/04/14 02:44:38;;;;;;;256.70;63.90;;;;;;;8.88;100.00;101873.41;5061864;28;20025;-70
2022/04/14 02:47:03;;;;;;;543.13;72.38;;;;;;;8.83;100.00;101868.00;5065077;28;20033;-70
2022/04/14 02:49:29;;;;;;;255.80;71.22;;;;;;;8.83;100.00;101868.00;5062512;28;20024;-69
2022/04/14 02:51:54;;;;;;;235.18;66.10;;;;;;;8.81;100.00;101874.06;5063862;28;20045;-68
2022/04/14 02:54:19;;;;;;;424.67;73.88;;;;;;;8.79;100.00;101873.16;5064144;28;20543;-68
2022/04/14 02:56:45;;;;;;;140.50;64.78;;;;;;;8.75;100.00;101861.63;5061980;28;20033;-69
2022/04/14 02:59:10;;;;;;;102.55;59.95;;;;;;;8.77;100.00;101866.97;5065142;28;20023;-69
2022/04/14 03:01:35;;;;;;;174.45;70.78;;;;;;;8.77;100.00;101859.06;5062055;28;20031;-68
2022/04/14 03:04:01;;;;;;;138.82;76.65;;;;;;;8.84;100.00;101859.25;5064069;28;20536;-69
2022/04/14 03:06:26;;;;;;;159.25;76.47;;;;;;;8.86;100.00;101864.56;5062926;28;20071;-69
2022/04/14 03:08:51;;;;;;;134.23;76.40;;;;;;;8.87;100.00;101863.72;5063011;28;20460;-69
2022/04/14 03:11:17;;;;;;;115.93;68.80;;;;;;;8.84;100.00;101856.63;5064191;28;20029;-69
2022/04/14 03:13:42;;;;;;;103.63;62.35;;;;;;;8.70;100.00;101858.84;5061435;28;20452;-69
2022/04/14 03:16:08;;;;;;;209.82;65.82;;;;;;;8.72;100.00;101865.09;5064885;28;20135;-69
2022/04/14 03:18:33;;;;;;;135.20;73.10;;;;;;;8.75;100.00;101863.38;5061580;28;20028;-69
2022/04/14 03:20:59;;;;;;;128.57;73.15;;;;;;;8.74;100.00;101859.84;5063895;28;20033;-68
2022/04/14 03:23:24;;;;;;;139.90;74.28;;;;;;;8.77;100.00;101864.31;5062882;28;20031;-68
2022/04/14 03:25:50;;;;;;;159.80;83.32;;;;;;;8.75;100.00;101868.66;5062684;28;20031;-69
2022/04/14 03:28:15;;;;;;;165.50;82.32;;;;;;;8.72;100.00;101866.81;5064214;28;20055;-69
2022/04/14 03:30:41;;;;;;;153.50;81.18;;;;;;;8.74;100.00;101865.13;5061206;28;20029;-69
2022/04/14 03:33:06;;;;;;;148.13;81.05;;;;;;;8.76;100.00;101865.16;5064784;28;20070;-69
2022/04/14 03:35:32;;;;;;;146.55;80.82;;;;;;;8.72;100.00;101872.06;5061710;28;20024;-69
2022/04/14 03:37:57;;;;;;;147.93;81.38;;;;;;;8.68;100.00;101867.59;5063219;28;20037;-68
2022/04/14 03:40:22;;;;;;;141.93;77.72;;;;;;;8.62;100.00;101873.59;5062980;28;20112;-69
2022/04/14 03:42:48;;;;;;;128.90;70.82;;;;;;;8.55;100.00;101874.25;5061974;28;20048;-68
2022/04/14 03:45:13;;;;;;;175.90;79.78;;;;;;;8.53;100.00;101873.28;5064189;28;20020;-68
2022/04/14 03:47:38;;;;;;;137.38;69.30;;;;;;;8.47;100.00;101868.72;5061138;28;20452;-70
2022/04/14 03:50:04;;;;;;;171.10;84.85;;;;;;;8.49;100.00;101864.41;5064086;28;20079;-69
2022/04/14 03:52:30;;;;;;;317.25;77.80;;;;;;;8.43;100.00;101868.56;5061699;28;20540;-70
2022/04/14 03:54:56;;;;;;;275.88;81.55;;;;;;;8.47;100.00;101866.09;5062805;28;20387;-69
2022/04/14 03:57:21;;;;;;;449.45;84.88;;;;;;;8.44;100.00;101863.38;5062937;28;20119;-70
2022/04/14 03:59:46;;;;;;;461.95;92.50;;;;;;;8.44;100.00;101871.28;5060964;28;20091;-69
2022/04/14 04:02:12;;;;;;;766.55;102.55;;;;;;;8.36;100.00;101867.53;5064378;28;20025;-69
2022/04/14 04:04:37;;;;;;;484.50;89.93;;;;;;;8.45;100.00;101861.66;5060728;28;20021;-70
2022/04/14 04:07:04;;;;;;;477.70;98.28;;;;;;;8.48;100.00;101869.66;5063497;28;20056;-70
2022/04/14 04:09:32;;;;;;;783.08;108.80;;;;;;;8.50;100.00;101862.66;5061867;28;20066;-70
2022/04/14 04:11:58;;;;;;;882.05;114.57;;;;;;;8.43;100.00;101866.84;5062689;28;20033;-70
2022/04/14 04:14:23;;;;;;;841.05;106.90;;;;;;;8.37;100.00;101875.47;5062521;28;20154;-69
2022/04/14 04:16:49;;;;;;;779.35;104.57;;;;;;;8.38;100.00;101877.22;5061637;28;20140;-70
2022/04/14 04:19:15;;;;;;;640.55;99.13;;;;;;;8.36;100.00;101878.94;5063652;28;20036;-70
2022/04/14 04:21:40;;;;;;;605.22;96.32;;;;;;;8.33;100.00;101881.47;5060855;28;20025;-70
2022/04/14 04:24:05;;;;;;;668.13;106.65;;;;;;;8.37;100.00;101887.72;5064181;28;20099;-69
2022/04/14 04:26:31;;;;;;;710.70;104.40;;;;;;;8.33;100.00;101884.13;5060018;28;20036;-69
2022/04/14 04:28:56;;;;;;;647.75;102.50;;;;;;;8.32;100.00;101887.59;5062511;28;20383;-70
2022/04/14 04:31:22;;;;;;;528.17;97.40;;;;;;;8.34;100.00;101885.00;5062563;28;20051;-70
2022/04/14 04:33:51;;;;;;;682.47;106.10;;;;;;;8.29;100.00;101887.50;5061100;28;20112;-70
2022/04/14 04:36:19;;;;;;;379.88;89.15;;;;;;;8.26;100.00;101890.03;5063343;28;20021;-69
2022/04/14 04:38:44;;;;;;;458.48;95.07;;;;;;;8.20;100.00;101893.38;5060887;28;20025;-69
2022/04/14 04:41:10;;;;;;;505.05;92.47;;;;;;;8.16;100.00;101891.50;5063931;28;20027;-69
2022/04/14 04:43:35;;;;;;;353.20;85.60;;;;;;;8.13;100.00;101901.06;5062940;28;20080;-69
2022/04/14 04:46:01;;;;;;;440.40;91.50;;;;;;;8.09;100.00;101893.91;5063334;28;20017;-69
2022/04/14 04:48:26;;;;;;;214.15;76.95;;;;;;;8.11;100.00;101897.47;5060376;28;20044;-69
2022/04/14 04:50:52;;;;;;;225.30;79.43;;;;;;;8.08;100.00;101897.38;5061682;28;20024;-70
2022/04/14 04:53:18;;;;;;;296.63;85.57;;;;;;;8.01;100.00;101897.19;5063277;28;20017;-68
2022/04/14 04:55:43;;;;;;;426.90;96.15;;;;;;;7.98;100.00;101907.63;5060416;28;20356;-69
2022/04/14 04:58:08;;;;;;;305.60;88.20;;;;;;;7.98;100.00;101906.72;5063839;28;20480;-69
2022/04/14 05:00:34;;;;;;;363.15;86.43;;;;;;;7.96;100.00;101904.03;5060762;28;20025;-69
2022/04/14 05:02:59;;;;;;;346.90;87.57;;;;;;;7.96;100.00;101908.41;5062436;28;20379;-68
2022/04/14 05:05:25;;;;;;;513.33;95.28;;;;;;;7.95;100.00;101906.63;5062028;28;20024;-69
2022/04/14 05:07:50;;;;;;;438.25;91.40;;;;;;;7.92;100.00;101915.34;5060910;28;20082;-69
2022/04/14 05:10:16;;;;;;;298.25;84.68;;;;;;;7.92;100.00;101910.06;5063001;28;20028;-69
2022/04/14 05:12:42;;;;;;;507.40;98.57;;;;;;;7.88;100.00;101913.44;5061995;28;20031;-68
2022/04/14 05:15:08;;;;;;;387.13;90.13;;;;;;;7.86;100.00;101917.75;5067377;28;20025;-68
2022/04/14 05:17:33;;;;;;;421.95;88.72;;;;;;;7.85;100.00;101916.88;5064083;28;20036;-69
2022/04/14 05:19:58;;;;;;;503.00;97.60;;;;;;;7.83;100.00;101917.66;5066023;28;20104;-68
2022/04/14 05:22:24;;;;;;;355.23;91.32;;;;;;;7.82;100.00;101914.13;5065370;28;20379;-69
2022/04/14 05:24:49;;;;;;;319.17;86.90;;;;;;;7.83;100.00;101913.31;5064229;28;20033;-69
2022/04/14 05:27:14;;;;;;;374.90;90.82;;;;;;;7.82;100.00;101918.47;5066777;28;20032;-69
2022/04/14 05:29:40;;;;;;;331.00;87.88;;;;;;;7.79;100.00;101914.03;5063508;28;20857;-69
2022/04/14 05:32:06;;;;;;;311.25;85.20;;;;;;;7.75;100.00;101925.31;5066557;28;20021;-69
2022/04/14 05:34:32;;;;;;;420.05;91.72;;;;;;;7.71;100.00;101923.41;5061789;28;20024;-69
2022/04/14 05:36:58;;;;;;;285.45;84.65;;;;;;;7.68;100.00;101931.22;5062365;28;20098;-70
2022/04/14 05:39:23;;;;;;;339.80;92.82;;;;;;;7.67;100.00;101932.97;5071463;28;20056;-70
2022/04/14 05:41:48;;;;;;;373.13;95.25;;;;;;;7.71;100.00;101947.09;5072908;28;20315;-68
2022/04/14 05:44:14;;;;;;;421.42;93.03;;;;;;;7.73;100.00;101942.75;5073303;28;20033;-68
2022/04/14 05:46:39;;;;;;;323.73;87.72;;;;;;;7.74;100.00;101948.94;5074090;28;20035;-69
2022/04/14 05:49:04;;;;;;;293.52;90.15;;;;;;;7.74;100.00;101951.56;5073830;28;20031;-69
2022/04/14 05:51:30;;;;;;;372.60;93.72;;;;;;;7.74;100.00;101951.56;5054479;28;20468;-70
2022/04/14 05:53:55;;;;;;;342.67;90.70;;;;;;;7.77;100.00;101954.31;5073309;28;20390;-68
2022/04/14 05:56:20;;;;;;;320.67;91.38;;;;;;;7.78;100.00;101945.56;5073821;28;20046;-69
2022/04/14 05:58:46;;;;;;;262.55;89.35;;;;;;;7.79;100.00;101952.59;5073895;28;20111;-70
2022/04/14 06:01:12;;;;;;;190.15;86.53;;;;;;;7.82;100.00;101953.63;5073854;28;20082;-69
2022/04/14 06:03:39;;;;;;;147.93;82.43;;;;;;;7.87;100.00;101960.78;5072482;28;20538;-68
2022/04/14 06:06:05;;;;;;;161.48;85.03;;;;;;;7.90;100.00;101950.34;5066372;28;20429;-68
2022/04/14 06:08:30;;;;;;;157.10;84.55;;;;;;;7.94;100.00;101958.41;5070626;28;20056;-68
2022/04/14 06:10:56;;;;;;;158.02;87.13;;;;;;;8.00;100.00;101961.22;5073349;28;20064;-67
2022/04/14 06:13:21;;;;;;;166.30;89.72;;;;;;;8.02;100.00;101948.09;5073105;28;20054;-71
2022/04/14 06:15:46;;;;;;;156.27;87.32;;;;;;;8.07;100.00;101943.91;5073100;28;20521;-68
2022/04/14 06:18:12;;;;;;;149.27;87.30;;;;;;;8.14;100.00;101945.88;5071901;28;20395;-68
2022/04/14 06:20:37;;;;;;;144.90;87.20;;;;;;;8.22;100.00;101951.38;5071852;28;20043;-71
2022/04/14 06:23:03;;;;;;;154.75;90.32;;;;;;;8.33;100.00;101951.69;5072313;28;20024;-71
2022/04/14 06:25:28;;;;;;;155.63;91.13;;;;;;;8.41;100.00;101951.97;5073077;28;20046;-69
2022/04/14 06:27:55;;;;;;;145.60;86.38;;;;;;;8.50;100.00;101955.81;5073464;28;20033;-68
2022/04/14 06:30:21;;;;;;;139.95;84.25;;;;;;;8.54;100.00;101956.78;5071872;28;20101;-69
2022/04/14 06:33:03;;;;;;;148.98;90.68;;;;;;;8.61;100.00;101953.50;5068572;28;20024;-69
2022/04/14 06:35:28;;;;;;;138.57;84.35;;;;;;;8.68;100.00;101962.50;5073143;28;20070;-68
2022/04/14 06:37:54;;;;;;;148.68;90.78;;;;;;;8.83;100.00;101962.03;5073070;28;20057;-68
2022/04/14 06:40:21;;;;;;;141.73;92.25;;;;;;;8.87;100.00;101967.44;5072946;28;20032;-68
2022/04/14 06:42:47;;;;;;;142.35;91.93;;;;;;;8.86;100.00;101955.09;5072303;28;20140;-68
2022/04/14 06:45:12;;;;;;;136.27;88.50;;;;;;;8.95;100.00;101953.59;5072874;28;20095;-68
2022/04/14 06:47:37;;;;;;;133.05;85.35;;;;;;;9.01;100.00;101957.31;5072063;28;20028;-68
2022/04/14 06:50:03;;;;;;;141.68;88.10;;;;;;;9.13;100.00;101958.47;5072719;28;20025;-69
2022/04/14 06:52:28;;;;;;;131.75;85.85;;;;;;;9.20;100.00;101953.44;5072522;28;20029;-69
2022/04/14 06:54:54;;;;;;;136.48;85.65;;;;;;;9.34;100.00;101956.44;5071895;28;20021;-68
2022/04/14 06:57:20;;;;;;;113.55;75.00;;;;;;;9.34;100.00;101964.34;5066545;28;20120;-68
2022/04/14 06:59:46;;;;;;;114.47;74.85;;;;;;;9.50;100.00;101965.66;5062908;28;20064;-68
2022/04/14 07:02:11;;;;;;;112.90;75.40;;;;;;;9.60;100.00;101967.69;5064108;28;20048;-69
2022/04/14 07:04:36;;;;;;;108.18;74.57;;;;;;;9.71;100.00;101965.34;5062212;28;20037;-69
2022/04/14 07:07:02;;;;;;;94.82;61.88;;;;;;;9.81;100.00;101961.16;5064925;28;20031;-69
2022/04/14 07:09:32;;;;;;;79.88;56.45;;;;;;;9.90;100.00;101968.44;5063069;28;20037;-68
2022/04/14 07:12:01;;;;;;;68.57;51.60;;;;;;;10.02;100.00;101965.19;5066017;28;20033;-68
2022/04/14 07:14:28;;;;;;;65.55;51.25;;;;;;;10.12;100.00;101968.13;5062568;28;20604;-68
2022/04/14 07:16:57;;;;;;;56.67;44.40;;;;;;;10.18;100.00;101966.47;5059599;28;20384;-68
2022/04/14 07:19:23;;;;;;;52.28;43.72;;;;;;;10.30;100.00;101966.78;5064283;28;20077;-68
2022/04/14 07:21:48;;;;;;;50.00;42.28;;;;;;;10.45;100.00;101975.06;5072644;28;20103;-68
2022/04/14 07:24:14;;;;;;;49.85;39.97;;;;;;;10.61;100.00;101970.13;5072026;28;20025;-68
2022/04/14 07:26:39;;;;;;;43.70;34.30;;;;;;;10.67;100.00;101972.91;5071519;28;20043;-68
2022/04/14 07:29:05;;;;;;;47.50;37.97;;;;;;;10.84;100.00;101970.63;5072246;28;20044;-68
2022/04/14 07:31:35;;;;;;;45.25;37.28;;;;;;;11.00;100.00;101979.78;5071509;28;20374;-70
2022/04/14 07:34:01;;;;;;;39.60;33.08;;;;;;;11.05;100.00;101980.75;5065798;28;20028;-69
2022/04/14 07:36:27;;;;;;;41.88;33.30;;;;;;;11.20;100.00;101982.84;5071094;28;20023;-70
2022/04/14 07:38:52;;;;;;;42.55;34.22;;;;;;;11.29;100.00;101990.06;5071860;28;20047;-67
2022/04/14 07:41:17;;;;;;;38.75;29.63;;;;;;;11.36;100.00;101989.34;5072393;28;20028;-67
2022/04/14 07:43:43;;;;;;;39.53;29.13;;;;;;;11.43;100.00;101993.88;5071836;28;20450;-67
2022/04/14 07:46:08;;;;;;;37.80;29.25;;;;;;;11.51;100.00;101991.38;5071069;28;20021;-67
2022/04/14 07:48:34;;;;;;;37.65;28.75;;;;;;;11.60;100.00;101988.00;5072276;28;20028;-67
2022/04/14 07:51:02;;;;;;;36.15;28.00;;;;;;;11.69;100.00;101990.81;5070214;28;20032;-67
2022/04/14 07:53:28;;;;;;;33.80;24.50;;;;;;;11.77;100.00;101993.59;5069850;28;20037;-68
2022/04/14 07:55:54;;;;;;;34.35;24.92;;;;;;;11.86;100.00;101994.63;5071575;28;20028;-68
2022/04/14 07:58:20;;;;;;;30.83;21.52;;;;;;;12.09;100.00;101986.22;5070703;28;20107;-67
2022/04/14 08:00:46;;;;;;;30.20;20.27;;;;;;;12.46;100.00;101993.84;5071764;28;20033;-68
2022/04/14 08:03:12;;;;;;;30.90;19.90;;;;;;;12.79;100.00;101996.09;5071486;28;20024;-69
2022/04/14 08:05:43;;;;;;;29.90;21.40;;;;;;;12.98;100.00;101994.56;5059577;28;20029;-68
2022/04/14 08:08:19;;;;;;;31.00;21.45;;;;;;;13.06;100.00;101992.00;5062710;28;20028;-70
2022/04/14 08:10:46;;;;;;;30.88;20.90;;;;;;;13.28;100.00;101990.53;5062904;28;20029;-68
2022/04/14 08:13:13;;;;;;;28.90;19.58;;;;;;;13.50;100.00;101996.06;5062253;28;20400;-68
2022/04/14 08:15:39;;;;;;;28.52;18.08;;;;;;;13.58;100.00;101992.63;5065591;28;20028;-68
2022/04/14 08:18:06;;;;;;;30.15;19.67;;;;;;;13.66;100.00;102005.09;5060837;28;20040;-68
2022/04/14 08:20:33;;;;;;;29.85;19.25;;;;;;;13.83;100.00;102000.84;5063650;28;20040;-67
2022/04/14 08:22:59;;;;;;;27.00;17.42;;;;;;;13.86;100.00;101999.97;5062177;28;20055;-67
2022/04/14 08:25:27;;;;;;;27.00;17.15;;;;;;;13.91;100.00;102000.94;5061896;28;20426;-67
2022/04/14 08:27:54;;;;;;;27.35;18.67;;;;;;;14.08;100.00;101990.41;5062938;28;20079;-67
2022/04/14 08:30:21;;;;;;;26.90;16.27;;;;;;;14.32;100.00;101994.16;5062360;28;20513;-68
2022/04/14 08:32:48;;;;;;;27.35;17.30;;;;;;;14.41;100.00;102005.72;5064393;28;20230;-67
2022/04/14 08:35:15;;;;;;;27.23;16.50;;;;;;;14.63;100.00;102000.59;5068701;28;20032;-67
2022/04/14 08:37:42;;;;;;;26.48;16.55;;;;;;;14.93;100.00;102005.19;5065311;28;20493;-67
2022/04/14 08:40:10;;;;;;;27.85;17.48;;;;;;;15.39;100.00;101998.25;5070761;28;20056;-67
2022/04/14 08:42:39;;;;;;;26.50;17.65;;;;;;;15.84;100.00;102008.16;5071154;28;20098;-66
2022/04/14 08:45:07;;;;;;;26.85;16.10;;;;;;;16.38;100.00;101996.53;5068106;28;20020;-67
2022/04/14 08:47:36;;;;;;;25.77;14.32;;;;;;;16.61;100.00;101991.16;5073112;28;20032;-66
2022/04/14 08:50:04;;;;;;;23.90;13.90;;;;;;;16.85;100.00;102003.56;5074877;28;20534;-67
2022/04/14 08:52:33;;;;;;;25.10;14.50;;;;;;;16.99;100.00;102000.84;5070003;28;20383;-67
2022/04/14 08:54:59;;;;;;;23.85;13.32;;;;;;;16.84;100.00;101992.88;5072614;28;20025;-67
2022/04/14 08:57:25;;;;;;;24.35;12.68;;;;;;;17.10;100.00;102000.84;5073244;28;20039;-67
2022/04/14 08:59:50;;;;;;;23.67;12.57;;;;;;;17.39;100.00;102003.34;5074827;28;20383;-67
2022/04/14 09:02:21;;;;;;;23.88;12.77;;;;;;;17.39;100.00;102003.34;5073143;28;20024;-69
2022/04/14 09:04:49;;;;;;;23.60;12.15;;;;;;;17.67;100.00;101996.94;5071982;28;20120;-68
2022/04/14 09:07:14;;;;;;;22.25;10.88;;;;;;;17.95;100.00;102003.00;5074701;28;20024;-68
2022/04/14 09:09:39;;;;;;;23.15;11.43;;;;;;;18.52;100.00;101990.88;5070848;28;20027;-68
2022/04/14 09:12:06;;;;;;;23.75;12.05;;;;;;;19.05;100.00;102004.59;5073545;28;20471;-67
2022/04/14 09:14:35;;;;;;;22.50;11.27;;;;;;;19.23;100.00;102008.81;5074599;28;20111;-69
2022/04/14 09:17:04;;;;;;;21.35;9.32;;;;;;;19.30;100.00;102000.66;5073877;28;20069;-68
2022/04/14 09:19:30;;;;;;;23.13;11.27;;;;;;;19.34;100.00;101999.72;5074419;28;20024;-69
2022/04/14 09:22:25;;;;;;;23.10;10.73;;;;;;;19.45;100.00;101987.97;5074635;28;20027;-69
2022/04/14 09:24:55;;;;;;;20.73;9.32;;;;;;;18.39;100.00;101982.09;5072392;28;20041;-69
2022/04/14 09:27:37;;;;;;;21.77;10.70;;;;;;;17.81;100.00;101991.47;5073068;28;20024;-69
2022/04/14 09:30:08;;;;;;;21.77;11.07;;;;;;;17.23;100.00;101977.63;5069984;28;20060;-69
2022/04/14 09:32:38;;;;;;;20.90;9.90;;;;;;;17.28;100.00;101986.47;5072858;28;20178;-68
2022/04/14 09:35:05;;;;;;;21.50;10.38;;;;;;;17.46;100.00;101979.25;5072133;28;20067;-70
2022/04/14 09:37:31;;;;;;;21.67;9.80;;;;;;;17.31;100.00;101969.56;5068908;28;20078;-71
2022/04/14 09:40:08;;;;;;;24.52;10.30;;;;;;;17.59;100.00;101971.16;5071318;28;20044;-70
2022/04/14 09:42:35;;;;;;;21.50;10.57;;;;;;;18.14;100.00;101966.25;5070208;28;20036;-69
2022/04/14 09:45:20;;;;;;;21.58;10.20;;;;;;;19.18;100.00;101968.69;5071337;28;20031;-69
2022/04/14 09:47:48;;;;;;;20.60;9.02;;;;;;;20.11;98.19;101968.16;5068456;28;20041;-68
2022/04/14 09:50:24;;;;;;;19.75;7.75;;;;;;;20.57;88.48;101960.16;5068929;28;20017;-74
2022/04/14 09:53:18;;;;;;;20.10;8.60;;;;;;;20.92;87.50;101961.25;5070005;28;20353;-66
2022/04/14 09:55:50;;;;;;;18.98;7.35;;;;;;;21.30;83.31;101962.22;5066758;28;20131;-67
2022/04/14 09:58:20;;;;;;;19.45;7.97;;;;;;;21.40;74.24;101961.06;5067958;28;20110;-69
2022/04/14 10:00:53;;;;;;;19.30;7.07;;;;;;;21.99;61.76;101957.88;5071875;28;20036;-68
2022/04/14 10:03:23;;;;;;;19.58;8.10;;;;;;;22.55;59.11;101954.59;5070612;28;20024;-69
2022/04/14 10:05:50;;;;;;;19.55;7.40;;;;;;;22.87;52.98;101957.28;5070552;28;20104;-69
2022/04/14 10:08:17;;;;;;;19.38;7.20;;;;;;;22.86;49.14;101951.00;5072451;28;20032;-68
2022/04/14 10:10:44;;;;;;;18.45;6.53;;;;;;;23.23;48.20;101958.00;5072819;28;20044;-68
2022/04/14 10:13:12;;;;;;;18.02;6.80;;;;;;;23.35;43.02;101963.97;5072403;28;20021;-67
2022/04/14 10:15:48;;;;;;;19.33;7.13;;;;;;;23.50;43.67;101960.75;5072895;28;20020;-68
2022/04/14 10:18:15;;;;;;;19.38;7.65;;;;;;;23.57;44.60;101969.53;5072207;28;20039;-68
2022/04/14 10:20:43;;;;;;;18.95;7.20;;;;;;;24.30;42.75;101982.38;5073663;28;20086;-68
2022/04/14 10:23:10;;;;;;;18.00;6.20;;;;;;;24.94;39.23;101977.41;5073148;28;20025;-67
2022/04/14 10:25:37;;;;;;;17.05;5.78;;;;;;;24.99;33.98;101987.09;5073587;28;20021;-67
2022/04/14 10:28:05;;;;;;;15.88;5.10;;;;;;;24.98;35.47;101993.44;5073032;28;20103;-67
2022/04/14 10:30:31;;;;;;;16.10;5.07;;;;;;;24.90;35.39;101987.44;5072989;28;20032;-67
2022/04/14 10:32:57;;;;;;;15.30;5.13;;;;;;;24.42;34.32;101996.38;5072837;28;20025;-67
2022/04/14 10:35:27;;;;;;;15.75;5.22;;;;;;;24.42;35.50;101991.88;5073037;28;20032;-67
2022/04/14 10:38:07;;;;;;;17.70;5.80;;;;;;;25.56;35.29;101993.00;5072362;28;20037;-67
2022/04/14 10:40:35;;;;;;;14.40;4.00;;;;;;;24.55;34.04;101992.28;5071595;28;20021;-67
2022/04/14 10:43:05;;;;;;;16.10;5.13;;;;;;;24.74;35.68;101997.06;5070359;28;20044;-67
2022/04/14 10:45:47;;;;;;;16.88;5.30;;;;;;;25.74;34.94;102002.16;5069820;28;20043;-67
2022/04/14 10:48:26;;;;;;;16.20;4.90;;;;;;;25.54;33.64;102004.81;5071761;28;20470;-67
2022/04/14 10:51:17;;;;;;;16.45;5.00;;;;;;;25.48;32.88;102005.06;5072648;28;20348;-67
2022/04/14 10:53:50;;;;;;;15.45;4.28;;;;;;;25.20;33.76;102001.59;5071763;28;20032;-69
2022/04/14 10:56:36;;;;;;;13.60;4.35;;;;;;;25.14;36.00;101990.16;5071753;28;20491;-69
2022/04/14 10:59:04;;;;;;;15.70;4.57;;;;;;;25.05;34.75;101988.69;5070314;28;20153;-70
2022/04/14 11:01:50;;;;;;;15.32;4.80;;;;;;;24.85;35.09;101990.31;5069577;28;20074;-69
2022/04/14 11:04:29;;;;;;;13.05;3.88;;;;;;;25.41;33.16;101988.19;5068101;28;20485;-69